^^
Grace C. Lehan Memorial Weather Station Historical Data
Daily Summary for February 9, 2021 Units:  English    Metric   Both
Daily Weekly Monthly Yearly
  High: Low: Average:
Temperature: 69.1 °F 37.6 °F 53.1 °F
Dew Point: 50.1 °F 36.1 °F 44.4 °F
Humidity: 95% 50% 75%
Wind Speed: 4.3mph 0mph 0.4mph
Wind Gust: 11mph - -
Wind- - WSW
Pressure: 30.09 in 29.96 in -
Precipitation: 0.00 in    
 
 
Tabular Data for February 9, 2021
Time Temperature Dew Point Pressure Wind Wind Speed Wind Gust Humidity Rainfall Rate (Hourly) solar
00:04 43.5 °F 40.5 °F 30.08 in Calm     89% 0.00 in 0 W/m2
00:09 43.3 °F 40.3 °F 30.08 in Calm     89% 0.00 in 0 W/m2
00:14 43.2 °F 40.2 °F 30.08 in Calm     89% 0.00 in 0 W/m2
00:19 43 °F 40 °F 30.08 in Calm     89% 0.00 in 0 W/m2
00:24 42.8 °F 39.8 °F 30.08 in Calm     89% 0.00 in 0 W/m2
00:29 42.6 °F 39.7 °F 30.08 in Calm     89.2% 0.00 in 0 W/m2
00:34 42.5 °F 39.6 °F 30.08 in Calm     89.4% 0.00 in 0 W/m2
00:39 42.4 °F 39.7 °F 30.08 in Calm     90% 0.00 in 0 W/m2
00:44 42.3 °F 39.6 °F 30.08 in Calm     90% 0.00 in 0 W/m2
00:49 42.3 °F 39.7 °F 30.08 in Calm     90.5% 0.00 in 0 W/m2
00:54 42.4 °F 39.9 °F 30.08 in Calm     91% 0.00 in 0 W/m2
00:59 42.2 °F 39.6 °F 30.08 in Calm     90.3% 0.00 in 0 W/m2
01:04 42.1 °F 39.4 °F 30.08 in Calm     90.2% 0.00 in 0 W/m2
01:09 42 °F 39.6 °F 30.08 in Calm     91% 0.00 in 0 W/m2
01:14 41.9 °F 39.5 °F 30.08 in Calm     91% 0.00 in 0 W/m2
01:19 41.9 °F 39.5 °F 30.08 in Calm     91% 0.00 in 0 W/m2
01:24 41.9 °F 39.4 °F 30.08 in Calm     91% 0.00 in 0 W/m2
01:29 41.7 °F 39.3 °F 30.08 in Calm     91% 0.00 in 0 W/m2
01:34 41.5 °F 39.1 °F 30.08 in Calm     91% 0.00 in 0 W/m2
01:39 41.5 °F 39.2 °F 30.08 in Calm     91.3% 0.00 in 0 W/m2
01:44 41.7 °F 39.5 °F 30.07 in Calm     92% 0.00 in 0 W/m2
01:49 41.7 °F 39.6 °F 30.08 in Calm     92% 0.00 in 0 W/m2
01:54 41.6 °F 39.5 °F 30.08 in Calm     92% 0.00 in 0 W/m2
01:59 41.6 °F 39.5 °F 30.07 in Calm     92% 0.00 in 0 W/m2
02:04 41.6 °F 39.5 °F 30.07 in Calm     92% 0.00 in 0 W/m2
02:09 41.5 °F 39.4 °F 30.07 in Calm     92% 0.00 in 0 W/m2
02:14 41.4 °F 39.2 °F 30.07 in Calm     92% 0.00 in 0 W/m2
02:19 41.3 °F 39.2 °F 30.07 in Calm     92% 0.00 in 0 W/m2
02:24 41.2 °F 39.1 °F 30.07 in Calm     92% 0.00 in 0 W/m2
02:29 41.1 °F 39 °F 30.07 in Calm     92% 0.00 in 0 W/m2
02:34 41 °F 38.9 °F 30.06 in Calm     92% 0.00 in 0 W/m2
02:39 40.9 °F 38.7 °F 30.06 in Calm     92% 0.00 in 0 W/m2
02:44 40.8 °F 38.6 °F 30.06 in Calm     92% 0.00 in 0 W/m2
02:49 40.7 °F 38.6 °F 30.06 in Calm     92% 0.00 in 0 W/m2
02:54 40.7 °F 38.5 °F 30.06 in Calm     92% 0.00 in 0 W/m2
02:59 40.5 °F 38.4 °F 30.07 in Calm     92% 0.00 in 0 W/m2
03:04 40.3 °F 38.1 °F 30.07 in Calm     92% 0.00 in 0 W/m2
03:09 40 °F 37.9 °F 30.06 in Calm     92% 0.00 in 0 W/m2
03:14 39.8 °F 37.7 °F 30.06 in Calm     92% 0.00 in 0 W/m2
03:19 39.7 °F 37.5 °F 30.06 in Calm     92% 0.00 in 0 W/m2
03:24 39.6 °F 37.5 °F 30.06 in Calm     92% 0.00 in 0 W/m2
03:29 39.5 °F 37.4 °F 30.06 in Calm     92% 0.00 in 0 W/m2
03:34 39.4 °F 37.3 °F 30.06 in Calm     92% 0.00 in 0 W/m2
03:39 39.3 °F 37.1 °F 30.06 in Calm     92% 0.00 in 0 W/m2
03:44 39.2 °F 37 °F 30.06 in Calm     92% 0.00 in 0 W/m2
03:49 39.1 °F 37 °F 30.07 in Calm     92% 0.00 in 0 W/m2
03:54 39 °F 37.1 °F 30.06 in Calm     92.6% 0.00 in 0 W/m2
03:59 39 °F 37 °F 30.06 in Calm     92.4% 0.00 in 0 W/m2
04:00 39 °F 36.9 °F 30.06 in Calm     92% 0.00 in 0 W/m2
04:09 39 °F 37.2 °F 30.06 in Calm     93% 0.00 in 0 W/m2
04:14 38.9 °F 37.1 °F 30.06 in Calm     93% 0.00 in 0 W/m2
04:19 38.9 °F 37.1 °F 30.06 in Calm     93% 0.00 in 0 W/m2
04:24 38.9 °F 37.1 °F 30.06 in Calm     93% 0.00 in 0 W/m2
04:29 38.9 °F 37.1 °F 30.06 in Calm     93% 0.00 in 0 W/m2
04:34 38.9 °F 37 °F 30.06 in Calm     93% 0.00 in 0 W/m2
04:39 38.8 °F 37 °F 30.06 in Calm     93% 0.00 in 0 W/m2
04:44 38.7 °F 36.9 °F 30.06 in Calm     93% 0.00 in 0 W/m2
04:49 38.6 °F 36.8 °F 30.07 in Calm     93% 0.00 in 0 W/m2
04:54 38.6 °F 36.8 °F 30.06 in Calm     93% 0.00 in 0 W/m2
04:59 38.6 °F 36.8 °F 30.07 in Calm     93% 0.00 in 0 W/m2
05:04 38.6 °F 36.8 °F 30.07 in Calm     93% 0.00 in 0 W/m2
05:09 38.6 °F 36.8 °F 30.07 in Calm     93% 0.00 in 0 W/m2
05:14 38.5 °F 36.7 °F 30.07 in Calm     93% 0.00 in 0 W/m2
05:19 38.5 °F 36.6 °F 30.06 in Calm     93% 0.00 in 0 W/m2
05:24 38.4 °F 36.6 °F 30.06 in Calm     93% 0.00 in 0 W/m2
05:29 38.4 °F 36.6 °F 30.06 in Calm     93% 0.00 in 0 W/m2
05:34 38.3 °F 36.5 °F 30.07 in Calm     93% 0.00 in 0 W/m2
05:39 38.3 °F 36.5 °F 30.07 in Calm     93% 0.00 in 0 W/m2
05:44 38.2 °F 36.4 °F 30.07 in Calm     93% 0.00 in 0 W/m2
05:49 38.2 °F 36.3 °F 30.07 in Calm     93% 0.00 in 0 W/m2
05:54 38.1 °F 36.2 °F 30.07 in Calm     93% 0.00 in 0 W/m2
05:59 38 °F 36.2 °F 30.07 in Calm     93% 0.00 in 0 W/m2
06:04 37.9 °F 36.1 °F 30.07 in Calm     93.3% 0.00 in 0 W/m2
06:09 37.9 °F 36.3 °F 30.07 in Calm     94% 0.00 in 0 W/m2
06:14 37.9 °F 36.3 °F 30.07 in Calm     94% 0.00 in 0 W/m2
06:19 37.9 °F 36.3 °F 30.07 in Calm     94% 0.00 in 0 W/m2
06:24 37.8 °F 36.3 °F 30.07 in Calm     94% 0.00 in 0 W/m2
06:29 37.8 °F 36.2 °F 30.07 in Calm     94% 0.00 in 0 W/m2
06:34 37.7 °F 36.1 °F 30.07 in Calm     94% 0.00 in 0 W/m2
06:39 37.7 °F 36.1 °F 30.07 in Calm     94% 0.00 in 7 W/m2
06:44 37.7 °F 36.1 °F 30.07 in Calm     94% 0.00 in 9 W/m2
06:49 37.6 °F 36.1 °F 30.07 in Calm     94% 0.00 in 12 W/m2
06:54 37.7 °F 36.1 °F 30.07 in Calm     94% 0.00 in 16 W/m2
06:59 37.7 °F 36.1 °F 30.08 in Calm     94% 0.00 in 23 W/m2
07:04 37.8 °F 36.2 °F 30.08 in Calm     94% 0.00 in 35 W/m2
07:09 38 °F 36.4 °F 30.08 in Calm     94% 0.00 in 35 W/m2
07:14 38.4 °F 37.1 °F 30.08 in Calm     94.8% 0.00 in 35 W/m2
07:19 38.9 °F 37.6 °F 30.08 in Calm     95% 0.00 in 26 W/m2
07:24 39.3 °F 38 °F 30.08 in Calm     95% 0.00 in 30 W/m2
07:29 39.5 °F 38.2 °F 30.09 in Calm     95% 0.00 in 35 W/m2
07:34 39.7 °F 38.4 °F 30.09 in Calm     95% 0.00 in 54 W/m2
07:39 40 °F 38.7 °F 30.09 in Calm     95% 0.00 in 54 W/m2
07:44 40.5 °F 39.2 °F 30.09 in Calm     95% 0.00 in 53 W/m2
07:49 40.9 °F 39.6 °F 30.09 in Calm     95% 0.00 in 86 W/m2
07:54 41.3 °F 40 °F 30.09 in Calm     95% 0.00 in 84 W/m2
07:59 41.8 °F 40.5 °F 30.09 in Calm     95% 0.00 in 149 W/m2
08:00 42.2 °F 40.8 °F 30.08 in Calm     95% 0.00 in 146 W/m2
08:09 43 °F 41.7 °F 30.09 in Calm     95% 0.00 in 195 W/m2
08:14 43.7 °F 42.4 °F 30.09 in Calm     95% 0.00 in 232 W/m2
08:19 44.5 °F 43.2 °F 30.09 in Calm     95% 0.00 in 257 W/m2
08:24 45.6 °F 44.2 °F 30.09 in Calm     95% 0.00 in 267 W/m2
08:29 46.8 °F 45.5 °F 30.09 in Calm     95% 0.00 in 279 W/m2
08:34 48 °F 46.1 °F 30.08 in Calm     93.1% 0.00 in 288 W/m2
08:39 48.9 °F 45.9 °F 30.08 in Calm     89.4% 0.00 in 301 W/m2
08:44 49.7 °F 45.6 °F 30.08 in Calm     85.6% 0.00 in 311 W/m2
08:49 50.1 °F 45.5 °F 30.08 in Calm     83.9% 0.00 in 325 W/m2
08:54 50.6 °F 45.5 °F 30.08 in Calm     82.7% 0.00 in 336 W/m2
08:59 51.1 °F 45.6 °F 30.08 in Calm     81.3% 0.00 in 350 W/m2
09:04 51.7 °F 45.7 °F 30.07 in Calm     80.1% 0.00 in 362 W/m2
09:09 52.3 °F 45.9 °F 30.07 in Calm     78.7% 0.00 in 366 W/m2
09:14 52.6 °F 45.7 °F 30.07 in Calm     77.1% 0.00 in 352 W/m2
09:19 53 °F 45.9 °F 30.07 in Calm     76.8% 0.00 in 260 W/m2
09:24 53.4 °F 46 °F 30.07 in Calm     75.8% 0.00 in 396 W/m2
09:29 53.7 °F 45.9 °F 30.07 in Calm     74.5% 0.00 in 396 W/m2
09:34 54 °F 45.8 °F 30.07 in Calm     73.9% 0.00 in 197 W/m2
09:39 53.9 °F 45.5 °F 30.07 in Calm     73% 0.00 in 153 W/m2
09:44 53.8 °F 45.7 °F 30.06 in Calm     73.9% 0.00 in 127 W/m2
09:49 53.8 °F 45.7 °F 30.07 in Calm     74% 0.00 in 213 W/m2
09:54 53.9 °F 46.2 °F 30.07 in Calm     75% 0.00 in 204 W/m2
09:59 54.2 °F 46.2 °F 30.07 in Calm     74.4% 0.00 in 225 W/m2
10:04 54.4 °F 46 °F 30.07 in Calm     73.1% 0.00 in 213 W/m2
10:09 54.8 °F 46.7 °F 30.07 in Calm     74% 0.00 in 469 W/m2
10:14 55.4 °F 47 °F 30.06 in Calm     73.3% 0.00 in 480 W/m2
10:19 56.4 °F 47.5 °F 30.06 in Calm     72.1% 0.00 in 485 W/m2
10:24 57.4 °F 47.5 °F 30.05 in Calm     69.5% 0.00 in 492 W/m2
10:29 58.3 °F 48 °F 30.04 in Calm     68.4% 0.00 in 499 W/m2
10:34 59.2 °F 48.3 °F 30.05 in Calm     66.9% 0.00 in 499 W/m2
10:39 60 °F 48.3 °F 30.04 in Calm     65% 0.00 in 485 W/m2
10:44 60.7 °F 48 °F 30.04 in Calm     63% 0.00 in 512 W/m2
10:49 61.2 °F 48.1 °F 30.04 in NE 0.1 mph 2 mph 61.9% 0.00 in 476 W/m2
10:54 61.6 °F 47.9 °F 30.04 in NE 0.1 mph 2 mph 60.8% 0.00 in 353 W/m2
10:59 61.9 °F 47.9 °F 30.04 in Calm   2 mph 60.3% 0.00 in 325 W/m2
11:04 62.1 °F 48.1 °F 30.04 in Calm   2 mph 60.2% 0.00 in 408 W/m2
11:09 62.2 °F 48.2 °F 30.03 in Calm   2 mph 60% 0.00 in 512 W/m2
11:14 62.4 °F 48 °F 30.03 in NE 0.1 mph 2 mph 59.3% 0.00 in 487 W/m2
11:19 62.5 °F 47.1 °F 30.03 in NE 0.1 mph 3 mph 57.1% 0.00 in 225 W/m2
11:24 62.5 °F 47.5 °F 30.03 in NE 0.2 mph 3 mph 57.9% 0.00 in 322 W/m2
11:29 62.6 °F 47.1 °F 30.03 in NE 0.5 mph 3 mph 56.8% 0.00 in 297 W/m2
11:34 62.7 °F 47.3 °F 30.02 in NE 0.1 mph 3 mph 57% 0.00 in 353 W/m2
11:39 63 °F 47.8 °F 30.02 in Calm   2 mph 57.5% 0.00 in 408 W/m2
11:44 63.3 °F 47.6 °F 30.02 in Calm   2 mph 56.5% 0.00 in 429 W/m2
11:49 63.5 °F 48.1 °F 30.01 in Calm   2 mph 57.2% 0.00 in 366 W/m2
11:54 63.8 °F 47.8 °F 30.01 in Calm   2 mph 56% 0.00 in 274 W/m2
11:59 64 °F 47.7 °F 30.01 in NE 0.2 mph 3 mph 55.3% 0.00 in 348 W/m2
12:00 64.1 °F 47.6 °F 30.01 in Calm   3 mph 55% 0.00 in 62 W/m2
12:09 64.5 °F 48.1 °F 30.01 in Calm   1 mph 55.2% 0.00 in 107 W/m2
12:14 64.6 °F 47.7 °F 30.01 in Calm   1 mph 54.3% 0.00 in 367 W/m2
12:19 64.7 °F 48.3 °F 30.01 in Calm   1 mph 55.3% 0.00 in 418 W/m2
12:24 64.8 °F 47.9 °F 30.01 in Calm   1 mph 54.2% 0.00 in 316 W/m2
12:29 65 °F 47.9 °F 30.01 in Calm   1 mph 53.8% 0.00 in 141 W/m2
12:34 65.1 °F 47.9 °F 30.00 in Calm   1 mph 53.8% 0.00 in 396 W/m2
12:39 65.3 °F 48.1 °F 30.00 in NE 0.2 mph 2 mph 53.7% 0.00 in 373 W/m2
12:44 65.6 °F 48.6 °F 30.00 in NE 0.1 mph 2 mph 54.2% 0.00 in 452 W/m2
12:49 65.8 °F 48.5 °F 30.00 in Calm   2 mph 53.5% 0.00 in 452 W/m2
12:54 66 °F 48.4 °F 29.99 in Calm   2 mph 53% 0.00 in 74 W/m2
12:59 66.2 °F 48.3 °F 29.99 in Calm   2 mph 52.4% 0.00 in 251 W/m2
13:04 66.4 °F 48.6 °F 29.99 in Calm   2 mph 52.5% 0.00 in 232 W/m2
13:09 66.7 °F 48.9 °F 29.99 in Calm     52.8% 0.00 in 274 W/m2
13:14 66.8 °F 48.7 °F 29.99 in Calm     52% 0.00 in 403 W/m2
13:19 67.2 °F 49 °F 29.98 in NE 0.1 mph 3 mph 52% 0.00 in 403 W/m2
13:24 67.7 °F 49.4 °F 29.98 in NW 1.3 mph 6 mph 52% 0.00 in 404 W/m2
13:29 68.2 °F 49.7 °F 29.97 in WNW 2.2 mph 8 mph 51.7% 0.00 in 330 W/m2
13:34 68.3 °F 49.4 °F 29.97 in WNW 3.1 mph 10 mph 50.7% 0.00 in 392 W/m2
13:39 68.4 °F 49.6 °F 29.97 in WNW 1.6 mph 10 mph 51% 0.00 in 279 W/m2
13:44 68.6 °F 49.6 °F 29.97 in NW 1.5 mph 10 mph 50.7% 0.00 in 162 W/m2
13:49 68.7 °F 49.6 °F 29.97 in WNW 1.4 mph 10 mph 50.6% 0.00 in 401 W/m2
13:54 68.9 °F 49.8 °F 29.97 in NW 1.4 mph 10 mph 50.6% 0.00 in 399 W/m2
13:59 69 °F 50.1 °F 29.97 in WSW 1 mph 10 mph 50.9% 0.00 in 244 W/m2
14:04 69.1 °F 49.7 °F 29.97 in WNW 2.5 mph 10 mph 50% 0.00 in 269 W/m2
14:09 68.8 °F 49.5 °F 29.96 in West 1.3 mph 9 mph 50.2% 0.00 in 93 W/m2
14:14 68.6 °F 49.7 °F 29.96 in NW 3.5 mph 9 mph 50.8% 0.00 in 206 W/m2
14:19 68.4 °F 49.3 °F 29.96 in West 1.5 mph 9 mph 50.4% 0.00 in 172 W/m2
14:24 68.2 °F 49.8 °F 29.96 in WNW 0.7 mph 9 mph 51.7% 0.00 in 193 W/m2
14:29 68.1 °F 49.3 °F 29.96 in WNW 1.9 mph 9 mph 51% 0.00 in 98 W/m2
14:34 67.9 °F 49.3 °F 29.96 in WNW 2.6 mph 11 mph 51.3% 0.00 in 39 W/m2
14:39 67.8 °F 49.2 °F 29.96 in WNW 1.8 mph 11 mph 51.5% 0.00 in 37 W/m2
14:44 67.6 °F 49.4 °F 29.96 in WNW 1.7 mph 11 mph 52% 0.00 in 35 W/m2
14:49 67.5 °F 49.3 °F 29.96 in WNW 2 mph 11 mph 52% 0.00 in 33 W/m2
14:54 67.3 °F 49.1 °F 29.96 in West 3 mph 11 mph 52% 0.00 in 33 W/m2
14:59 67.2 °F 49.2 °F 29.97 in WNW 1.7 mph 11 mph 52.3% 0.00 in 32 W/m2
15:04 67.1 °F 49.2 °F 29.97 in WNW 2.1 mph 11 mph 52.7% 0.00 in 32 W/m2
15:09 67 °F 49.3 °F 29.98 in WNW 4.2 mph 10 mph 53% 0.00 in 30 W/m2
15:14 66.9 °F 49.3 °F 29.98 in WNW 2.6 mph 10 mph 53% 0.00 in 30 W/m2
15:19 66.9 °F 49.6 °F 29.98 in WNW 2.5 mph 10 mph 53.8% 0.00 in 30 W/m2
15:24 66.8 °F 49.3 °F 29.98 in WNW 4.3 mph 11 mph 53.3% 0.00 in 30 W/m2
15:29 66.7 °F 49.3 °F 29.98 in WNW 4.2 mph 11 mph 53.5% 0.00 in 30 W/m2
15:34 66.5 °F 49.2 °F 29.98 in WNW 2.1 mph 11 mph 53.5% 0.00 in 33 W/m2
15:39 66.4 °F 49.3 °F 29.98 in WNW 2.9 mph 9 mph 54% 0.00 in 32 W/m2
15:44 66.3 °F 49.2 °F 29.98 in WNW 2.9 mph 10 mph 54.1% 0.00 in 28 W/m2
15:49 66.2 °F 49.3 °F 29.98 in NW 2.8 mph 10 mph 54.5% 0.00 in 21 W/m2
15:54 66 °F 49.2 °F 29.98 in WNW 2.5 mph 10 mph 54.6% 0.00 in 21 W/m2
15:59 65.9 °F 49.3 °F 29.98 in NW 1 mph 10 mph 55% 0.00 in 18 W/m2
16:00 65.8 °F 49.2 °F 29.98 in Calm   10 mph 55% 0.00 in 16 W/m2
16:09 65.5 °F 49.3 °F 29.98 in WNW 1.1 mph 4 mph 55.7% 0.00 in 14 W/m2
16:14 65.2 °F 49.2 °F 29.98 in NW 0.9 mph 5 mph 56% 0.00 in 12 W/m2
16:19 65 °F 49.4 °F 29.98 in WNW 0.7 mph 5 mph 57% 0.00 in 12 W/m2
16:24 64.8 °F 49.2 °F 29.98 in NW 1 mph 5 mph 57% 0.00 in 9 W/m2
16:29 64.5 °F 49.1 °F 29.98 in WNW 0.7 mph 5 mph 57.4% 0.00 in 5 W/m2
16:34 64.2 °F 49.2 °F 29.98 in WNW 0.6 mph 5 mph 58.2% 0.00 in 0 W/m2
16:39 64 °F 49.1 °F 29.98 in NW 2.2 mph 7 mph 58.5% 0.00 in 0 W/m2
16:44 63.7 °F 49.1 °F 29.98 in WNW 1.5 mph 7 mph 59% 0.00 in 0 W/m2
16:49 63.5 °F 49 °F 29.99 in WNW 1.1 mph 7 mph 59.3% 0.00 in 0 W/m2
16:54 63.3 °F 49.1 °F 29.99 in WNW 0.7 mph 7 mph 60% 0.00 in 0 W/m2
16:59 63.1 °F 49 °F 29.99 in WNW 0.1 mph 7 mph 60% 0.00 in 0 W/m2
17:04 62.9 °F 48.8 °F 29.99 in Calm   7 mph 60% 0.00 in 0 W/m2
17:09 62.7 °F 48.7 °F 30.00 in Calm   1 mph 60.3% 0.00 in 0 W/m2
17:14 62.5 °F 48.9 °F 29.99 in Calm   1 mph 61% 0.00 in 0 W/m2
17:19 62.3 °F 48.7 °F 30.00 in Calm   1 mph 61% 0.00 in 0 W/m2
17:24 62.1 °F 48.6 °F 30.00 in Calm   1 mph 61.3% 0.00 in 0 W/m2
17:29 61.8 °F 48.7 °F 30.00 in Calm   1 mph 62% 0.00 in 0 W/m2
17:34 61.7 °F 48.6 °F 30.00 in WNW 0.3 mph 3 mph 62.1% 0.00 in 0 W/m2
17:39 61.5 °F 48.8 °F 30.00 in WNW 0.4 mph 4 mph 63% 0.00 in 0 W/m2
17:44 61.3 °F 48.6 °F 29.99 in WNW 0.4 mph 4 mph 63% 0.00 in 0 W/m2
17:47 61.1 °F 48.4 °F 29.99 in Calm   4 mph 63% 0.00 in 0 W/m2
18:00 60.5 °F 48.7 °F 29.99 in Calm   4 mph 65% 0.00 in 0 W/m2
18:30 59.6 °F 48.2 °F 30.00 in Calm   6 mph 66% 0.00 in 0 W/m2
19:00 58.9 °F 48 °F 30.00 in Calm   4 mph 67% 0.00 in 0 W/m2
19:30 59.3 °F 48.4 °F 30.00 in Calm   5 mph 67% 0.00 in 0 W/m2
20:04 59.9 °F 49.3 °F 30.00 in Calm   5 mph 67.8% 0.00 in 0 W/m2
20:09 60 °F 49.2 °F 30.00 in Calm   1 mph 67.3% 0.00 in 0 W/m2
20:14 60.1 °F 49.1 °F 30.00 in West 0.2 mph 2 mph 67% 0.00 in 0 W/m2
20:19 60.1 °F 49.2 °F 30.00 in Calm   2 mph 67% 0.00 in 0 W/m2
20:24 60.2 °F 49.2 °F 30.01 in Calm   2 mph 67% 0.00 in 0 W/m2
20:29 60.2 °F 49.2 °F 30.01 in Calm   2 mph 67% 0.00 in 0 W/m2
20:34 60.2 °F 49.2 °F 30.00 in West 0.4 mph 2 mph 67% 0.00 in 0 W/m2
20:39 60 °F 49.1 °F 30.00 in West 0.3 mph 2 mph 67% 0.00 in 0 W/m2
20:44 59.9 °F 48.9 °F 30.00 in Calm   2 mph 67% 0.00 in 0 W/m2
20:49 59.7 °F 48.8 °F 30.00 in West 0.3 mph 3 mph 67% 0.00 in 0 W/m2
20:54 59.5 °F 48.6 °F 30.00 in West 0.3 mph 3 mph 67% 0.00 in 0 W/m2
20:59 59.4 °F 48.5 °F 30.00 in West 0.1 mph 3 mph 67.1% 0.00 in 0 W/m2
21:04 59.2 °F 48.6 °F 30.00 in West 0.1 mph 3 mph 67.7% 0.00 in 0 W/m2
21:09 59.1 °F 48.6 °F 30.00 in West 0.3 mph 2 mph 68% 0.00 in 0 W/m2
21:14 59 °F 48.7 °F 30.00 in Calm   2 mph 68.7% 0.00 in 0 W/m2
21:19 58.8 °F 48.7 °F 30.00 in West 0.2 mph 2 mph 69% 0.00 in 0 W/m2
21:24 58.6 °F 48.8 °F 30.00 in West 0.5 mph 3 mph 69.8% 0.00 in 0 W/m2
21:29 58.5 °F 48.7 °F 30.00 in West 0.4 mph 5 mph 70% 0.00 in 0 W/m2
21:34 58.3 °F 48.6 °F 30.00 in West 0.4 mph 5 mph 70% 0.00 in 0 W/m2
21:39 58.1 °F 48.6 °F 30.00 in West 0.5 mph 3 mph 70.6% 0.00 in 0 W/m2
21:44 58 °F 48.7 °F 30.00 in West 0.2 mph 3 mph 71% 0.00 in 0 W/m2
21:49 57.9 °F 48.6 °F 30.00 in West 0.2 mph 3 mph 71% 0.00 in 0 W/m2
21:54 57.8 °F 48.5 °F 30.00 in Calm   3 mph 71% 0.00 in 0 W/m2
21:59 57.7 °F 48.7 °F 30.00 in Calm   3 mph 71.8% 0.00 in 0 W/m2
22:04 57.6 °F 48.7 °F 29.99 in Calm   3 mph 72% 0.00 in 0 W/m2
22:09 57.5 °F 48.6 °F 29.99 in Calm   1 mph 72% 0.00 in 0 W/m2
22:14 57.4 °F 48.4 °F 29.99 in Calm   1 mph 72% 0.00 in 0 W/m2
22:19 57.3 °F 48.4 °F 29.99 in Calm   1 mph 72% 0.00 in 0 W/m2
22:24 57.3 °F 48.4 °F 29.98 in Calm   1 mph 72% 0.00 in 0 W/m2
22:29 57.2 °F 48.3 °F 29.98 in Calm   1 mph 72% 0.00 in 0 W/m2
22:34 57.2 °F 48.3 °F 29.98 in Calm   1 mph 72% 0.00 in 0 W/m2
22:39 57.1 °F 48.2 °F 29.98 in Calm     72% 0.00 in 0 W/m2
22:44 57.1 °F 48.3 °F 29.98 in Calm     72.4% 0.00 in 0 W/m2
22:49 56.9 °F 48.1 °F 29.98 in Calm     72.2% 0.00 in 0 W/m2
22:54 56.8 °F 48.1 °F 29.98 in West 0.4 mph 2 mph 72.4% 0.00 in 0 W/m2
22:59 56.7 °F 48.2 °F 29.98 in Calm   2 mph 73% 0.00 in 0 W/m2
23:09 56.3 °F 48.2 °F 29.98 in West 0.2 mph 2 mph 74% 0.00 in 0 W/m2
23:14 56.2 °F 48 °F 29.98 in Calm   2 mph 74% 0.00 in 0 W/m2
23:19 56 °F 47.9 °F 29.98 in Calm   2 mph 74% 0.00 in 0 W/m2
23:24 55.9 °F 47.8 °F 29.98 in Calm   2 mph 74% 0.00 in 0 W/m2
23:29 55.9 °F 47.7 °F 29.98 in Calm   2 mph 74% 0.00 in 0 W/m2
23:34 55.8 °F 48 °F 29.98 in West 0.1 mph 2 mph 75% 0.00 in 0 W/m2
23:39 55.7 °F 47.9 °F 29.98 in West 1.3 mph 6 mph 75% 0.00 in 0 W/m2
23:44 55.8 °F 48 °F 29.98 in West 0.3 mph 6 mph 75% 0.00 in 0 W/m2
23:49 55.9 °F 48.1 °F 29.98 in West 0.7 mph 6 mph 75% 0.00 in 0 W/m2
23:54 56 °F 47.9 °F 29.98 in West 0.1 mph 6 mph 74.3% 0.00 in 0 W/m2
23:59 56 °F 47.8 °F 29.98 in Calm   6 mph 74% 0.00 in 0 W/m2
Hartford County Weather
Compliments of Weather Underground - 4 mb